ADDS METAR Data INFO
IDs: Format: Raw Decoded Include TAF

Data at: 1531 UTC 18 Jun 2018

KALO 181454Z 24011KT 10SM FEW090 26/22 A2993 RMK AO2 SLP129 T02610222 50002
KALO 181354Z 23009KT 10SM CLR 26/22 A2993 RMK AO2 SLP129 T02560222
KALO 181254Z 23009KT 10SM CLR 26/22 A2993 RMK AO2 SLP129 T02610222
KALO 181154Z 22006KT 10SM CLR 24/22 A2993 RMK AO2 SLP126 60002 70002 T02440217 10278 20222 53007
KALO 181054Z 00000KT 7SM CLR 22/22 A2992 RMK AO2 SLP122 T02220222
KALO 180954Z AUTO 00000KT 10SM CLR 23/23 A2991 RMK AO2 RAE0855 SLP119 P0000 T02280228
KALO 180854Z AUTO 30005KT 10SM -RA FEW055 BKN075 BKN090 24/22 A2990 RMK AO2 RAB44 SLP118 P0002 60002 T02440222 53010
KALO 180754Z AUTO 22013KT 10SM FEW080 BKN095 27/21 A2987 RMK AO2 SLP108 T02670211
KALO 180654Z AUTO 21017G23KT 10SM FEW095 28/21 A2987 RMK AO2 SLP105 T02780211
KALO 180554Z AUTO 19011KT 10SM FEW120 27/22 A2988 RMK AO2 SLP108 T02720222 10311 20267 403330228 50001
KALO 180454Z AUTO 19010KT 10SM FEW120 27/23 A2988 RMK AO2 SLP111 T02670228
KALO 180354Z AUTO 18007KT 10SM SCT110 27/23 A2989 RMK AO2 SLP113 T02720228
KALO 180254Z AUTO 18007KT 10SM OVC120 28/23 A2987 RMK AO2 SLP106 T02780228 53005
KALO 180154Z AUTO 19008KT 10SM CLR 28/23 A2985 RMK AO2 SLP100 T02830228
KALO 180054Z 20010KT 10SM CLR 29/22 A2985 RMK AO2 SLP101 T02940222
KALO 172354Z 20010KT 10SM CLR 31/22 A2985 RMK AO2 SLP102 T03060222 10333 20306 56010
KALO 172254Z 20011G19KT 10SM CLR 31/23 A2986 RMK AO2 SLP104 T03110228
KALO 172154Z 21015G23KT 10SM CLR 32/22 A2988 RMK AO2 PK WND 21026/2108 SLP110 T03170222
KALO 172054Z 21020G25KT 10SM FEW048 33/22 A2989 RMK AO2 PK WND 20026/2028 SLP111 T03330222 56004
KALO 171954Z 20017G25KT 10SM CLR 33/22 A2989 RMK AO2 SLP111 T03330222
KALO 171854Z 21015G22KT 10SM FEW044 32/23 A2988 RMK AO2 SLP111 T03220228
KALO 171754Z 20017G23KT 10SM CLR 32/22 A2990 RMK AO2 SLP115 60000 T03220222 10322 20239 58001
KALO 171654Z 22014G22KT 10SM CLR 32/22 A2990 RMK AO2 RAB1558E44 SLP118 P0000 T03170222
KALO 171554Z 21016G21KT 10SM CLR 31/22 A2990 RMK AO2 RAB16E52 SLP116 P0000 T03110222
KALO 171454Z 22011KT 10SM CLR 29/22 A2990 RMK AO2 SLP116 T02940222 51002
KALO 171354Z 21010KT 10SM CLR 27/22 A2990 RMK AO2 SLP116 T02720217
KALO 171254Z 20010KT 10SM CLR 25/22 A2990 RMK AO2 SLP117 T02500217
KALO 171154Z 19008KT 10SM CLR 24/21 A2989 RMK AO2 SLP115 T02390211 10261 20228 53001
KALO 171054Z 19008KT 10SM CLR 23/21 A2989 RMK AO2 SLP114 T02330211
KALO 170954Z AUTO 19007KT 10SM CLR 23/21 A2988 RMK AO2 SLP111 T02330211
KALO 170854Z AUTO 18007KT 10SM CLR 24/21 A2989 RMK AO2 SLP113 T02390211 51014
KALO 170754Z AUTO 18008KT 10SM CLR 24/21 A2987 RMK AO2 SLP107 T02440211
KALO 170654Z AUTO 17007KT 10SM CLR 26/21 A2988 RMK AO2 SLP110 T02560211
KALO 170554Z AUTO 18011KT 10SM CLR 26/21 A2985 RMK AO2 SLP098 T02610211 10311 20261 403280217 55001
KALO 170454Z AUTO 18012KT 10SM CLR 27/22 A2984 RMK AO2 SLP095 T02670217
KALO 170354Z AUTO 17011KT 10SM CLR 27/22 A2985 RMK AO2 SLP100 T02720222